Time;durP1;ratioP1;P1;durP2;ratioP2;P2;SDS_P1;SDS_P2;PMS_P1;PMS_P2;Temp;Humidity;BMP_temperature;BMP_pressure;BME280_temperature;BME280_humidity;BME280_pressure;Samples;Min_cycle;Max_cycle;Signal;HPM_P1;HPM_P2
2022/05/01 00:02:19;;;;;;;8.68;1.33;;;;;;;;;;5035806;28;20025;-90
2022/05/01 00:04:47;;;;;;;10.10;1.40;;;;;;;;;;5013084;28;20454;-90
2022/05/01 00:07:13;;;;;;;7.07;1.35;;;;;;;;;;5000688;28;20766;-89
2022/05/01 00:09:41;;;;;;;6.65;0.93;;;;;;;;;;5033534;28;20037;-88
2022/05/01 00:12:10;;;;;;;7.55;1.20;;;;;;;;;;5019617;28;20040;-89
2022/05/01 00:14:42;;;;;;;10.35;1.25;;;;;;;;;;5027047;28;20060;-89
2022/05/01 00:17:08;;;;;;;4.22;0.57;;;;;;;;;;5014339;28;20030;-87
2022/05/01 00:19:34;;;;;;;7.35;1.30;;;;;;;;;;5011336;28;20402;-89
2022/05/01 00:22:01;;;;;;;8.48;1.48;;;;;;;;;;5017224;28;23122;-89
2022/05/01 00:24:28;;;;;;;4.95;1.05;;;;;;;;;;5012422;28;20030;-89
2022/05/01 00:26:54;;;;;;;11.20;1.33;;;;;;;;;;5015443;28;20049;-89
2022/05/01 00:29:31;;;;;;;8.18;0.82;;;;;;;;;;5025365;28;20041;-88
2022/05/01 00:31:57;;;;;;;8.00;1.50;;;;;;;;;;5028726;28;20030;-89
2022/05/01 00:37:22;;;;;;;6.82;1.30;;;;;;;;;;5028991;28;20072;-89
2022/05/01 00:39:49;;;;;;;8.48;1.30;;;;;;;;;;5008063;28;20038;-89
2022/05/01 00:42:17;;;;;;;5.43;1.00;;;;;;;;;;5017899;28;20030;-90
2022/05/01 00:44:49;;;;;;;5.20;1.17;;;;;;;;;;5033793;28;20095;-89
2022/05/01 00:47:16;;;;;;;6.70;1.30;;;;;;;;;;5013757;28;20497;-88
2022/05/01 00:49:42;;;;;;;7.65;1.48;;;;;;;;;;5013283;28;20041;-89
2022/05/01 00:52:11;;;;;;;6.53;0.57;;;;;;;;;;5019327;28;20053;-88
2022/05/01 00:54:39;;;;;;;9.48;1.20;;;;;;;;;;5013554;28;20037;-89
2022/05/01 00:57:08;;;;;;;7.20;0.85;;;;;;;;;;5025847;28;20037;-89
2022/05/01 00:59:35;;;;;;;12.52;1.38;;;;;;;;;;5012629;28;20034;-89
2022/05/01 01:02:26;;;;;;;8.85;0.98;;;;;;;;;;5007793;28;20124;-89
2022/05/01 01:04:55;;;;;;;6.60;0.93;;;;;;;;;;4997567;28;20498;-88
2022/05/01 01:07:21;;;;;;;11.10;1.70;;;;;;;;;;5017994;28;20041;-89
2022/05/01 01:09:51;;;;;;;10.95;1.60;;;;;;;;;;5010538;28;20037;-89
2022/05/01 01:15:24;;;;;;;7.20;1.20;;;;;;;;;;4970156;28;20039;-89
2022/05/01 01:17:54;;;;;;;9.13;0.85;;;;;;;;;;4975540;28;20048;-88
2022/05/01 01:20:21;;;;;;;3.67;0.95;;;;;;;;;;5029578;28;20171;-89
2022/05/01 01:22:56;;;;;;;10.02;1.20;;;;;;;;;;5017772;28;20041;-89
2022/05/01 01:25:24;;;;;;;9.85;1.25;;;;;;;;;;5031232;28;20037;-90
2022/05/01 01:27:54;;;;;;;7.55;0.77;;;;;;;;;;5016936;28;20510;-89
2022/05/01 01:33:06;;;;;;;9.13;1.40;;;;;;;;;;5025865;28;20040;-88
2022/05/01 01:35:35;;;;;;;9.05;1.45;;;;;;;;;;5016927;28;20436;-88
2022/05/01 01:38:04;;;;;;;8.88;1.25;;;;;;;;;;5013826;28;20128;-89
2022/05/01 01:40:31;;;;;;;6.63;0.95;;;;;;;;;;5009102;28;20034;-89
2022/05/01 01:42:59;;;;;;;3.00;0.80;;;;;;;;;;5014895;28;20036;-89
2022/05/01 01:45:28;;;;;;;10.63;1.27;;;;;;;;;;5026650;28;20056;-89
2022/05/01 01:47:57;;;;;;;6.45;1.05;;;;;;;;;;5014710;28;20033;-91
2022/05/01 01:50:24;;;;;;;5.57;0.88;;;;;;;;;;5010018;28;20476;-87
2022/05/01 01:52:51;;;;;;;7.55;0.93;;;;;;;;;;5016352;28;20042;-89
2022/05/01 01:55:18;;;;;;;7.70;1.40;;;;;;;;;;5015536;28;20033;-90
2022/05/01 01:57:52;;;;;;;6.82;1.45;;;;;;;;;;5010344;28;20064;-89
2022/05/01 02:00:19;;;;;;;8.00;0.73;;;;;;;;;;5011856;28;20511;-89
2022/05/01 02:02:46;;;;;;;8.68;1.08;;;;;;;;;;5011022;28;20033;-88
2022/05/01 02:05:12;;;;;;;3.53;0.77;;;;;;;;;;5009072;28;20493;-88
2022/05/01 02:07:45;;;;;;;9.27;1.08;;;;;;;;;;5014958;28;20039;-88
2022/05/01 02:10:11;;;;;;;6.80;1.10;;;;;;;;;;5011260;28;20029;-88
2022/05/01 02:12:48;;;;;;;7.22;1.00;;;;;;;;;;5013204;28;20036;-88
2022/05/01 02:15:15;;;;;;;7.05;1.25;;;;;;;;;;5020721;28;20036;-87
2022/05/01 02:17:41;;;;;;;8.88;1.52;;;;;;;;;;5011118;28;20374;-88
2022/05/01 02:20:11;;;;;;;8.63;1.25;;;;;;;;;;5021684;28;20029;-87
2022/05/01 02:22:40;;;;;;;11.25;1.45;;;;;;;;;;5012885;28;20200;-88
2022/05/01 02:25:07;;;;;;;8.73;1.60;;;;;;;;;;5021824;28;20400;-87
2022/05/01 02:27:34;;;;;;;8.52;1.33;;;;;;;;;;5011899;28;20084;-87
2022/05/01 02:30:01;;;;;;;9.60;1.58;;;;;;;;;;5025990;28;20037;-87
2022/05/01 02:32:33;;;;;;;9.90;1.10;;;;;;;;;;5014766;28;20033;-89
2022/05/01 02:35:00;;;;;;;8.75;1.67;;;;;;;;;;5016216;28;20097;-90
2022/05/01 02:37:27;;;;;;;8.95;1.65;;;;;;;;;;5009405;28;20037;-91
2022/05/01 02:39:55;;;;;;;5.32;1.45;;;;;;;;;;5013152;28;20450;-90
2022/05/01 02:42:21;;;;;;;10.60;1.05;;;;;;;;;;5021864;28;20513;-92
2022/05/01 02:44:47;;;;;;;5.55;1.10;;;;;;;;;;5012121;28;20384;-89
2022/05/01 02:47:19;;;;;;;8.27;1.63;;;;;;;;;;5010174;28;20042;-90
2022/05/01 02:49:46;;;;;;;8.30;1.80;;;;;;;;;;5002337;28;20040;-90
2022/05/01 02:52:24;;;;;;;9.82;2.78;;;;;;;;;;5003231;28;20144;-91
2022/05/01 02:54:50;;;;;;;15.05;2.20;;;;;;;;;;5009831;28;20495;-90
2022/05/01 02:57:17;;;;;;;10.35;1.95;;;;;;;;;;5007115;28;20045;-90
2022/05/01 02:59:44;;;;;;;11.68;1.83;;;;;;;;;;5019430;28;20042;-90
2022/05/01 03:02:12;;;;;;;14.30;1.70;;;;;;;;;;5024897;28;20033;-90
2022/05/01 03:04:40;;;;;;;6.80;1.25;;;;;;;;;;5013731;28;20030;-90
2022/05/01 03:07:12;;;;;;;10.68;1.83;;;;;;;;;;5010787;28;20117;-90
2022/05/01 03:09:38;;;;;;;10.55;2.13;;;;;;;;;;5010866;28;20065;-89
2022/05/01 03:12:12;;;;;;;9.85;2.20;;;;;;;;;;5012509;28;20060;-92
2022/05/01 03:14:38;;;;;;;17.10;3.05;;;;;;;;;;5015517;28;20029;-91
2022/05/01 03:17:05;;;;;;;12.52;2.75;;;;;;;;;;5008520;28;20425;-92
2022/05/01 03:22:58;;;;;;;10.02;1.90;;;;;;;;;;5032596;28;20044;-91
2022/05/01 03:34:48;;;;;;;8.25;1.42;;;;;;;;;;4925009;29;20039;-89
2022/05/01 03:37:21;;;;;;;12.00;1.67;;;;;;;;;;4947143;29;20386;-88
2022/05/01 03:39:47;;;;;;;9.60;2.00;;;;;;;;;;4944918;29;20054;-89
2022/05/01 03:42:15;;;;;;;15.68;2.08;;;;;;;;;;4938381;29;20434;-88
2022/05/01 03:44:41;;;;;;;9.82;2.00;;;;;;;;;;4935851;29;20051;-89
2022/05/01 03:47:08;;;;;;;18.15;2.35;;;;;;;;;;5008385;28;20029;-88
2022/05/01 03:49:35;;;;;;;8.40;1.55;;;;;;;;;;5013762;28;20048;-87
2022/05/01 03:52:02;;;;;;;9.10;1.42;;;;;;;;;;5022303;28;20030;-86
2022/05/01 03:54:29;;;;;;;9.18;1.42;;;;;;;;;;4996514;28;20037;-86
2022/05/01 03:56:55;;;;;;;7.50;1.02;;;;;;;;;;5008891;28;20033;-87
2022/05/01 03:59:35;;;;;;;8.73;1.20;;;;;;;;;;5013759;28;20037;-88
2022/05/01 04:02:01;;;;;;;7.65;1.00;;;;;;;;;;5029664;28;20061;-88
2022/05/01 04:04:32;;;;;;;7.93;1.23;;;;;;;;;;4999519;28;20030;-87
2022/05/01 04:06:58;;;;;;;9.65;1.40;;;;;;;;;;5011117;28;20029;-88
2022/05/01 04:09:27;;;;;;;12.00;1.00;;;;;;;;;;5011083;28;20038;-87
2022/05/01 04:12:25;;;;;;;8.10;1.10;;;;;;;;;;5028276;28;20041;-88
2022/05/01 04:15:11;;;;;;;7.78;1.30;;;;;;;;;;4956235;28;20053;-88
2022/05/01 04:17:39;;;;;;;8.50;1.08;;;;;;;;;;5014823;28;20029;-87
2022/05/01 04:20:08;;;;;;;15.48;1.45;;;;;;;;;;5023143;28;20099;-87
2022/05/01 04:23:09;;;;;;;10.32;1.30;;;;;;;;;;4680698;28;10000762;-88
2022/05/01 04:25:37;;;;;;;10.43;1.88;;;;;;;;;;4977297;28;20033;-89
2022/05/01 04:28:11;;;;;;;11.82;1.88;;;;;;;;;;5031620;28;20061;-86
2022/05/01 04:30:39;;;;;;;9.93;1.15;;;;;;;;;;5033609;28;20420;-87
2022/05/01 04:33:13;;;;;;;8.77;1.73;;;;;;;;;;5017224;28;20357;-88
2022/05/01 04:36:11;;;;;;;6.65;1.10;;;;;;;;;;5030388;28;20025;-88
2022/05/01 04:39:49;;;;;;;;;;;;;;;;;;;;;
2022/05/01 04:42:08;;;;;;;6.68;1.05;;;;;;;;;;4927654;29;20058;-88
2022/05/01 04:45:01;;;;;;;9.48;1.60;;;;;;;;;;5012057;28;20472;-88
2022/05/01 04:47:28;;;;;;;7.20;1.42;;;;;;;;;;5012147;28;20034;-89
2022/05/01 04:49:58;;;;;;;11.27;1.85;;;;;;;;;;5015908;28;20069;-89
2022/05/01 04:52:24;;;;;;;10.10;1.15;;;;;;;;;;5033889;28;20038;-88
2022/05/01 04:54:51;;;;;;;9.65;1.33;;;;;;;;;;5023056;28;20042;-86
2022/05/01 04:57:17;;;;;;;6.82;1.50;;;;;;;;;;5017142;28;20044;-90
2022/05/01 04:59:45;;;;;;;20.83;2.80;;;;;;;;;;5022397;28;20049;-92
2022/05/01 05:02:11;;;;;;;10.10;2.05;;;;;;;;;;5002712;28;20061;-91
2022/05/01 05:07:33;;;;;;;9.48;1.33;;;;;;;;;;5032152;28;20480;-91
2022/05/01 05:09:59;;;;;;;7.50;1.33;;;;;;;;;;5018251;28;20029;-91
2022/05/01 05:12:35;;;;;;;14.52;1.63;;;;;;;;;;5034182;28;20041;-92
2022/05/01 05:15:02;;;;;;;11.23;1.95;;;;;;;;;;5028582;28;20034;-92
2022/05/01 05:17:38;;;;;;;13.15;1.30;;;;;;;;;;5016826;28;20041;-92
2022/05/01 05:20:06;;;;;;;10.10;1.42;;;;;;;;;;5024563;28;20042;-92
2022/05/01 05:22:32;;;;;;;12.32;1.25;;;;;;;;;;5013682;28;20030;-92
2022/05/01 05:24:59;;;;;;;9.02;1.30;;;;;;;;;;5010437;28;20119;-93
2022/05/01 05:27:54;;;;;;;10.73;1.60;;;;;;;;;;5033947;28;20029;-92
2022/05/01 05:30:21;;;;;;;9.18;1.60;;;;;;;;;;5034151;28;20033;-92
2022/05/01 05:32:47;;;;;;;11.60;1.88;;;;;;;;;;4998402;28;20037;-91
2022/05/01 05:35:21;;;;;;;8.05;1.30;;;;;;;;;;5017501;28;20032;-92
2022/05/01 05:37:48;;;;;;;5.97;1.83;;;;;;;;;;5033772;28;20037;-91
2022/05/01 05:40:14;;;;;;;7.68;1.33;;;;;;;;;;5017130;28;20164;-92
2022/05/01 05:42:41;;;;;;;7.82;1.33;;;;;;;;;;5034216;28;20060;-91
2022/05/01 05:45:10;;;;;;;7.97;1.30;;;;;;;;;;5010818;28;20495;-91
2022/05/01 05:47:55;;;;;;;8.48;1.38;;;;;;;;;;4997843;28;20038;-92
2022/05/01 05:50:22;;;;;;;4.82;1.17;;;;;;;;;;4997458;28;20030;-92
2022/05/01 05:52:48;;;;;;;6.10;1.33;;;;;;;;;;4996873;28;20481;-92
2022/05/01 05:55:15;;;;;;;10.73;1.55;;;;;;;;;;4997399;28;20485;-91
2022/05/01 05:57:42;;;;;;;6.53;1.25;;;;;;;;;;5014790;28;20034;-92
2022/05/01 06:00:16;;;;;;;7.20;1.10;;;;;;;;;;4997856;28;20045;-92
2022/05/01 06:02:43;;;;;;;9.90;2.15;;;;;;;;;;5013879;28;20037;-92
2022/05/01 06:05:12;;;;;;;8.35;1.23;;;;;;;;;;4997483;28;20079;-91
2022/05/01 06:07:41;;;;;;;5.65;1.02;;;;;;;;;;5013786;28;20030;-92
2022/05/01 06:10:07;;;;;;;10.95;1.27;;;;;;;;;;4997567;28;20028;-90
2022/05/01 06:12:37;;;;;;;7.75;1.55;;;;;;;;;;4997605;28;20567;-92
2022/05/01 06:15:04;;;;;;;9.98;1.63;;;;;;;;;;4996943;28;20030;-92
2022/05/01 06:17:40;;;;;;;13.70;1.88;;;;;;;;;;5002763;28;20108;-92
2022/05/01 06:20:09;;;;;;;10.95;1.45;;;;;;;;;;4997155;28;20034;-92
2022/05/01 06:22:35;;;;;;;6.07;0.90;;;;;;;;;;5014843;28;20507;-92
2022/05/01 06:25:35;;;;;;;12.13;1.90;;;;;;;;;;4996869;28;20030;-92
2022/05/01 06:28:01;;;;;;;10.63;1.65;;;;;;;;;;4974281;28;20050;-91
2022/05/01 06:30:28;;;;;;;11.07;1.95;;;;;;;;;;5014737;28;20072;-91
2022/05/01 06:32:55;;;;;;;13.05;1.40;;;;;;;;;;5007953;28;20117;-93
2022/05/01 06:35:21;;;;;;;12.85;1.80;;;;;;;;;;5013257;28;20125;-92
2022/05/01 06:37:47;;;;;;;8.93;1.25;;;;;;;;;;4997023;28;20057;-92
2022/05/01 06:40:14;;;;;;;12.20;2.05;;;;;;;;;;4992904;28;20523;-92
2022/05/01 06:42:55;;;;;;;10.23;1.20;;;;;;;;;;5013594;28;20057;-92
2022/05/01 06:45:45;;;;;;;11.15;1.80;;;;;;;;;;5000533;28;20042;-92
2022/05/01 06:48:11;;;;;;;15.15;1.95;;;;;;;;;;5025978;28;20037;-91
2022/05/01 06:50:38;;;;;;;11.02;2.13;;;;;;;;;;5031448;28;20041;-92
2022/05/01 06:53:07;;;;;;;10.25;1.42;;;;;;;;;;5025302;28;20504;-93
2022/05/01 06:55:34;;;;;;;11.10;2.58;;;;;;;;;;5029113;28;20057;-92
2022/05/01 07:00:53;;;;;;;12.70;1.88;;;;;;;;;;5034297;28;20524;-92
2022/05/01 07:03:22;;;;;;;11.05;2.30;;;;;;;;;;5016308;28;20061;-92
2022/05/01 07:05:49;;;;;;;8.68;1.85;;;;;;;;;;5033359;28;20026;-92
2022/05/01 07:08:15;;;;;;;12.88;2.08;;;;;;;;;;5016202;28;20042;-92
2022/05/01 07:10:42;;;;;;;11.30;2.13;;;;;;;;;;5031223;28;20073;-91
2022/05/01 07:13:12;;;;;;;8.68;1.83;;;;;;;;;;5032241;28;20487;-91
2022/05/01 07:15:39;;;;;;;10.15;2.10;;;;;;;;;;5011281;28;20029;-91
2022/05/01 07:18:07;;;;;;;10.40;2.30;;;;;;;;;;5028784;28;20086;-92
2022/05/01 07:20:35;;;;;;;14.98;1.75;;;;;;;;;;5032022;28;20030;-92
2022/05/01 07:23:04;;;;;;;12.70;1.52;;;;;;;;;;5031334;28;20039;-92
2022/05/01 07:25:34;;;;;;;16.08;2.67;;;;;;;;;;5029373;28;20477;-92
2022/05/01 07:28:01;;;;;;;11.88;2.20;;;;;;;;;;5023732;28;20034;-91
2022/05/01 07:30:30;;;;;;;20.98;3.10;;;;;;;;;;5030504;28;20037;-93
2022/05/01 07:32:58;;;;;;;10.10;1.67;;;;;;;;;;5020790;28;20040;-91
2022/05/01 07:35:24;;;;;;;13.50;2.25;;;;;;;;;;5016702;28;20030;-92
2022/05/01 07:37:51;;;;;;;12.43;2.15;;;;;;;;;;5032126;28;20041;-91
2022/05/01 07:40:20;;;;;;;14.27;2.75;;;;;;;;;;5015873;28;20037;-93
2022/05/01 07:42:46;;;;;;;10.10;2.25;;;;;;;;;;5033571;28;20108;-92
2022/05/01 07:45:12;;;;;;;14.27;2.40;;;;;;;;;;5031426;28;20055;-92
2022/05/01 07:47:39;;;;;;;11.27;1.52;;;;;;;;;;5030036;28;20124;-92
2022/05/01 07:50:25;;;;;;;11.82;1.83;;;;;;;;;;5016378;28;20084;-93
2022/05/01 07:52:51;;;;;;;14.98;1.90;;;;;;;;;;5030691;28;20117;-93
2022/05/01 07:55:18;;;;;;;16.92;2.05;;;;;;;;;;5016475;28;20033;-92
2022/05/01 07:57:46;;;;;;;16.90;2.03;;;;;;;;;;5019487;28;20041;-92
2022/05/01 08:00:13;;;;;;;5.95;1.55;;;;;;;;;;5018694;28;20049;-93
2022/05/01 08:05:27;;;;;;;14.05;2.70;;;;;;;;;;5019477;28;20048;-90
2022/05/01 08:07:54;;;;;;;11.60;1.70;;;;;;;;;;5016339;28;20469;-92
2022/05/01 08:10:28;;;;;;;8.43;1.38;;;;;;;;;;5010891;28;20064;-93
2022/05/01 08:12:58;;;;;;;9.90;1.73;;;;;;;;;;5033614;28;20037;-92
2022/05/01 08:15:24;;;;;;;8.43;1.95;;;;;;;;;;5036500;28;20061;-92
2022/05/01 08:21:04;;;;;;;12.85;2.20;;;;;;;;;;5021932;28;20072;-92
2022/05/01 08:21:07;;;;;;;9.50;2.17;;;;;;;;;;5032598;28;20034;-91
2022/05/01 08:23:39;;;;;;;17.73;2.08;;;;;;;;;;5002539;28;20030;-93
2022/05/01 08:26:06;;;;;;;16.55;1.70;;;;;;;;;;5007611;28;20491;-93
2022/05/01 08:28:33;;;;;;;9.40;2.17;;;;;;;;;;5018510;28;20030;-92
2022/05/01 08:31:15;;;;;;;11.95;2.00;;;;;;;;;;5035112;28;20448;-93
2022/05/01 08:33:41;;;;;;;12.27;1.73;;;;;;;;;;5034904;28;20496;-93
2022/05/01 08:36:07;;;;;;;12.75;1.23;;;;;;;;;;5019572;28;20571;-93
2022/05/01 08:38:39;;;;;;;12.45;2.20;;;;;;;;;;5011972;28;20061;-92
2022/05/01 08:41:06;;;;;;;12.15;2.13;;;;;;;;;;4999769;28;20088;-92
2022/05/01 08:43:34;;;;;;;11.30;1.88;;;;;;;;;;5015720;28;20404;-91
2022/05/01 08:49:06;;;;;;;8.13;1.63;;;;;;;;;;5026603;28;20566;-93
2022/05/01 09:57:36;;;;;;;17.05;3.08;;;;;;;;;;4987101;28;20053;-91
2022/05/01 10:00:03;;;;;;;13.93;2.90;;;;;;;;;;5011913;28;20049;-90
2022/05/01 10:03:02;;;;;;;21.10;3.28;;;;;;;;;;4998529;28;20053;-94
2022/05/01 10:05:28;;;;;;;19.27;3.20;;;;;;;;;;4996458;28;20036;-93
2022/05/01 10:07:57;;;;;;;15.65;3.45;;;;;;;;;;4997789;28;20485;-91
2022/05/01 10:10:37;;;;;;;17.48;3.05;;;;;;;;;;4996239;28;20026;-92
2022/05/01 10:13:04;;;;;;;14.10;2.92;;;;;;;;;;5006843;28;20030;-91
2022/05/01 10:18:35;;;;;;;16.42;3.25;;;;;;;;;;4996253;28;20393;-91
2022/05/01 10:21:02;;;;;;;19.23;3.22;;;;;;;;;;5011391;28;20037;-90
2022/05/01 10:23:51;;;;;;;14.63;3.35;;;;;;;;;;5013790;28;20030;-93
2022/05/01 10:26:29;;;;;;;13.35;3.35;;;;;;;;;;5008488;28;20026;-90
2022/05/01 10:29:08;;;;;;;14.40;3.85;;;;;;;;;;5003782;28;20033;-91
2022/05/01 10:34:53;;;;;;;11.32;2.88;;;;;;;;;;5014639;28;20095;-90
2022/05/01 10:38:05;;;;;;;13.65;2.83;;;;;;;;;;4997261;28;20547;-91
2022/05/01 10:41:12;;;;;;;16.77;4.00;;;;;;;;;;4980508;28;20034;-92
2022/05/01 10:43:39;;;;;;;14.93;3.97;;;;;;;;;;4996398;28;20033;-92
2022/05/01 10:46:25;;;;;;;17.38;3.85;;;;;;;;;;5009973;28;20485;-92
2022/05/01 10:48:52;;;;;;;13.15;4.50;;;;;;;;;;4992475;28;20061;-93
2022/05/01 10:51:30;;;;;;;16.75;3.60;;;;;;;;;;4989205;28;20129;-92
2022/05/01 10:59:45;;;;;;;15.73;4.10;;;;;;;;;;5020596;28;20041;-90
2022/05/01 11:11:19;;;;;;;19.63;3.67;;;;;;;;;;4973847;28;20039;-90
2022/05/01 11:13:46;;;;;;;17.92;4.55;;;;;;;;;;5010162;28;20124;-91
2022/05/01 11:16:13;;;;;;;13.40;4.05;;;;;;;;;;5014887;28;20049;-89
2022/05/01 11:18:55;;;;;;;17.45;5.03;;;;;;;;;;5016750;28;20493;-90
2022/05/01 11:21:21;;;;;;;19.02;4.90;;;;;;;;;;5000519;28;20037;-90
2022/05/01 11:27:10;;;;;;;19.27;5.15;;;;;;;;;;5027928;28;20060;-90
2022/05/01 11:29:37;;;;;;;23.27;5.82;;;;;;;;;;5016434;28;20037;-93
2022/05/01 11:32:21;;;;;;;17.13;4.45;;;;;;;;;;5031187;28;20544;-91
2022/05/01 11:34:49;;;;;;;18.50;4.55;;;;;;;;;;5020962;28;20064;-91
2022/05/01 11:37:16;;;;;;;18.77;5.47;;;;;;;;;;5020767;28;20046;-92
2022/05/01 11:39:51;;;;;;;22.00;5.40;;;;;;;;;;5020626;28;20132;-91
2022/05/01 11:42:24;;;;;;;17.58;4.97;;;;;;;;;;5020687;28;20108;-91
2022/05/01 11:45:11;;;;;;;19.30;5.57;;;;;;;;;;5013032;28;20096;-90
2022/05/01 11:50:41;;;;;;;19.52;5.10;;;;;;;;;;5032751;28;20120;-90
2022/05/01 18:52:09;;;;;;;16.10;3.97;;;;;;;;;;5026346;28;20574;-90
2022/05/01 18:54:35;;;;;;;23.35;4.72;;;;;;;;;;5016632;28;20049;-90
2022/05/01 18:57:03;;;;;;;19.40;5.25;;;;;;;;;;5032082;28;20037;-92
2022/05/01 18:59:30;;;;;;;14.98;4.45;;;;;;;;;;5012756;28;20034;-91
2022/05/01 19:01:56;;;;;;;13.40;5.00;;;;;;;;;;5013367;28;20062;-91
2022/05/01 19:04:37;;;;;;;19.13;4.60;;;;;;;;;;5014046;28;20030;-90
2022/05/01 19:07:10;;;;;;;23.23;5.82;;;;;;;;;;5011188;28;20026;-91
2022/05/01 19:09:50;;;;;;;17.83;4.32;;;;;;;;;;5029654;28;20061;-90
2022/05/01 19:12:39;;;;;;;13.15;3.30;;;;;;;;;;5015742;28;20396;-90
2022/05/01 19:15:12;;;;;;;14.60;3.30;;;;;;;;;;5025949;28;20505;-91
2022/05/01 19:17:54;;;;;;;15.52;3.15;;;;;;;;;;5019558;28;20053;-91
2022/05/01 19:26:33;;;;;;;18.40;3.00;;;;;;;;;;5024935;28;20024;-90
2022/05/01 19:29:45;;;;;;;15.95;3.45;;;;;;;;;;5011812;28;20045;-90
2022/05/01 19:32:17;;;;;;;17.42;3.60;;;;;;;;;;5011954;28;20037;-89
2022/05/01 19:35:20;;;;;;;16.25;3.83;;;;;;;;;;5015784;28;20053;-91
2022/05/01 19:37:50;;;;;;;11.00;2.83;;;;;;;;;;5011625;28;20121;-89
2022/05/01 19:40:23;;;;;;;22.40;3.17;;;;;;;;;;5005815;28;20038;-89
2022/05/01 19:42:52;;;;;;;14.38;2.53;;;;;;;;;;5014497;28;20156;-89
2022/05/01 19:45:33;;;;;;;16.88;2.63;;;;;;;;;;5033037;28;20030;-88
2022/05/01 19:53:50;;;;;;;14.77;3.05;;;;;;;;;;5025468;28;20103;-89
2022/05/01 19:56:23;;;;;;;21.15;2.78;;;;;;;;;;5015921;28;20037;-89
2022/05/01 19:58:52;;;;;;;17.88;3.00;;;;;;;;;;5017752;28;20122;-89
2022/05/01 20:01:21;;;;;;;18.45;3.42;;;;;;;;;;5015763;28;20026;-88
2022/05/01 20:03:58;;;;;;;11.98;3.20;;;;;;;;;;5021720;28;20029;-90
2022/05/01 20:06:25;;;;;;;12.65;2.35;;;;;;;;;;5013491;28;20080;-89
2022/05/01 20:09:09;;;;;;;13.88;2.83;;;;;;;;;;5019575;28;20034;-89
2022/05/01 20:11:37;;;;;;;20.92;3.20;;;;;;;;;;5019447;28;20128;-90
2022/05/01 20:14:08;;;;;;;8.95;2.20;;;;;;;;;;5019120;28;20100;-90
2022/05/01 20:16:42;;;;;;;16.27;3.00;;;;;;;;;;5024988;28;20116;-91
2022/05/01 20:19:34;;;;;;;13.65;2.53;;;;;;;;;;5017247;28;20037;-91
2022/05/01 20:22:06;;;;;;;11.52;2.95;;;;;;;;;;5016073;28;20048;-91
2022/05/01 20:24:44;;;;;;;18.13;3.42;;;;;;;;;;5018317;28;20052;-91
2022/05/01 20:27:36;;;;;;;12.02;2.90;;;;;;;;;;5031013;28;20030;-90
2022/05/01 20:30:14;;;;;;;13.80;2.85;;;;;;;;;;5026298;28;20033;-91
2022/05/01 20:33:06;;;;;;;13.40;3.05;;;;;;;;;;5029874;28;20084;-90
2022/05/01 20:35:48;;;;;;;14.77;3.67;;;;;;;;;;5016320;28;20041;-91
2022/05/01 20:38:17;;;;;;;8.85;2.70;;;;;;;;;;5009119;28;20041;-91
2022/05/01 20:40:47;;;;;;;12.00;2.45;;;;;;;;;;5035207;28;20037;-90
2022/05/01 20:43:32;;;;;;;15.13;2.50;;;;;;;;;;5018214;28;20454;-90
2022/05/01 20:46:36;;;;;;;19.60;2.78;;;;;;;;;;5036045;28;20365;-91
2022/05/01 20:49:21;;;;;;;14.60;2.67;;;;;;;;;;4978969;28;20088;-90
2022/05/01 20:51:51;;;;;;;13.68;2.53;;;;;;;;;;5018966;28;20384;-90
2022/05/01 20:54:21;;;;;;;10.20;2.17;;;;;;;;;;5035213;28;20064;-90
2022/05/01 20:56:48;;;;;;;10.00;2.15;;;;;;;;;;5018719;28;20444;-90
2022/05/01 20:59:17;;;;;;;16.08;2.97;;;;;;;;;;5017036;28;20030;-90
2022/05/01 21:01:45;;;;;;;13.65;2.75;;;;;;;;;;5018311;28;20047;-91
2022/05/01 21:04:12;;;;;;;14.98;3.25;;;;;;;;;;5034918;28;20033;-91
2022/05/01 21:06:45;;;;;;;15.77;3.28;;;;;;;;;;5015927;28;20033;-90
2022/05/01 21:09:11;;;;;;;7.22;2.25;;;;;;;;;;5016928;28;20106;-90
2022/05/01 21:11:38;;;;;;;16.55;3.28;;;;;;;;;;5030345;28;20508;-91
2022/05/01 21:14:07;;;;;;;17.35;3.53;;;;;;;;;;5018205;28;20051;-90
2022/05/01 21:16:34;;;;;;;16.85;3.58;;;;;;;;;;5031945;28;20117;-91
2022/05/01 21:19:02;;;;;;;10.05;2.85;;;;;;;;;;5014139;28;20033;-91
2022/05/01 21:24:32;;;;;;;9.10;2.30;;;;;;;;;;5021563;28;20087;-91
2022/05/01 21:26:58;;;;;;;12.85;2.97;;;;;;;;;;5013445;28;20081;-91
2022/05/01 21:35:03;;;;;;;11.30;2.17;;;;;;;;;;5036232;28;20043;-91
2022/05/01 21:37:29;;;;;;;9.60;2.47;;;;;;;;;;5018179;28;20087;-91
2022/05/01 21:39:55;;;;;;;9.20;2.22;;;;;;;;;;5017813;28;20042;-92
2022/05/01 21:42:24;;;;;;;16.23;3.28;;;;;;;;;;5031268;28;20121;-91
2022/05/01 21:44:50;;;;;;;14.50;2.95;;;;;;;;;;5018301;28;20040;-92
2022/05/01 21:47:17;;;;;;;15.25;3.00;;;;;;;;;;5025730;28;20061;-93
2022/05/01 21:50:06;;;;;;;14.68;2.80;;;;;;;;;;5005021;28;20553;-91
2022/05/01 21:52:44;;;;;;;13.32;2.78;;;;;;;;;;5014718;28;20053;-91
2022/05/01 21:55:10;;;;;;;11.63;1.88;;;;;;;;;;5007373;28;20370;-90
2022/05/01 21:58:00;;;;;;;17.10;2.40;;;;;;;;;;5018028;28;20129;-90
2022/05/01 22:03:23;;;;;;;12.68;1.98;;;;;;;;;;4945238;29;20027;-90
2022/05/01 22:05:57;;;;;;;15.23;2.55;;;;;;;;;;4939645;29;20058;-90
2022/05/01 22:08:23;;;;;;;11.77;2.58;;;;;;;;;;4939356;29;20063;-91
2022/05/01 22:10:50;;;;;;;11.40;2.38;;;;;;;;;;4968175;28;20033;-91
2022/05/01 22:13:16;;;;;;;8.60;2.15;;;;;;;;;;5018101;28;20519;-90
2022/05/01 22:15:43;;;;;;;15.68;2.35;;;;;;;;;;5004483;28;20034;-90
2022/05/01 22:18:12;;;;;;;16.77;2.60;;;;;;;;;;5013145;28;20484;-91
2022/05/01 22:20:38;;;;;;;11.50;1.95;;;;;;;;;;4998070;28;20058;-91
2022/05/01 22:23:40;;;;;;;16.45;2.15;;;;;;;;;;5014935;28;20064;-91
2022/05/01 22:26:06;;;;;;;11.35;2.47;;;;;;;;;;5033562;28;20103;-91
2022/05/01 22:28:32;;;;;;;11.60;2.28;;;;;;;;;;5002565;28;20087;-92
2022/05/01 22:34:21;;;;;;;14.20;2.15;;;;;;;;;;4935699;29;20062;-91
2022/05/01 22:39:32;;;;;;;13.10;2.85;;;;;;;;;;5032051;28;20044;-91
2022/05/01 22:42:00;;;;;;;10.75;2.97;;;;;;;;;;5016837;28;20477;-92
2022/05/01 22:44:26;;;;;;;11.48;2.50;;;;;;;;;;5017229;28;20037;-91
2022/05/01 22:46:53;;;;;;;15.23;3.28;;;;;;;;;;5017308;28;20034;-91
2022/05/01 22:49:31;;;;;;;12.13;2.95;;;;;;;;;;5015929;28;20041;-91
2022/05/01 22:51:58;;;;;;;11.50;2.60;;;;;;;;;;5013902;28;20096;-91
2022/05/01 22:54:24;;;;;;;11.02;2.00;;;;;;;;;;5015746;28;20080;-90
2022/05/01 22:56:51;;;;;;;10.52;2.05;;;;;;;;;;5016553;28;20073;-91
2022/05/01 22:59:28;;;;;;;10.20;2.35;;;;;;;;;;5025961;28;20033;-91
2022/05/01 23:01:54;;;;;;;8.32;2.20;;;;;;;;;;5015053;28;20552;-90
2022/05/01 23:04:21;;;;;;;15.10;2.50;;;;;;;;;;5016379;28;20029;-91
2022/05/01 23:06:47;;;;;;;15.40;3.28;;;;;;;;;;5013527;28;20481;-91
2022/05/01 23:09:13;;;;;;;11.60;2.85;;;;;;;;;;5011789;28;20392;-92
2022/05/01 23:11:48;;;;;;;6.88;2.13;;;;;;;;;;5016491;28;20061;-90
2022/05/01 23:14:14;;;;;;;12.52;2.33;;;;;;;;;;5013362;28;20387;-91
2022/05/01 23:16:40;;;;;;;7.65;2.58;;;;;;;;;;5025844;28;20044;-90
2022/05/01 23:22:24;;;;;;;17.55;3.88;;;;;;;;;;5030526;28;20412;-91
2022/05/01 23:24:50;;;;;;;13.95;2.80;;;;;;;;;;5032592;28;20030;-90
2022/05/01 23:27:39;;;;;;;15.23;3.33;;;;;;;;;;5012747;28;20064;-89
2022/05/01 23:32:51;;;;;;;18.05;3.22;;;;;;;;;;5033402;28;20076;-92
2022/05/01 23:35:17;;;;;;;12.15;2.80;;;;;;;;;;5011490;28;20084;-91
2022/05/01 23:37:43;;;;;;;15.35;3.25;;;;;;;;;;5018558;28;20124;-90
2022/05/01 23:40:21;;;;;;;12.10;2.78;;;;;;;;;;5017289;28;20534;-90
2022/05/01 23:42:47;;;;;;;16.45;2.95;;;;;;;;;;5011855;28;20535;-90
2022/05/01 23:45:14;;;;;;;10.38;3.03;;;;;;;;;;5015742;28;20407;-90
2022/05/01 23:50:44;;;;;;;9.02;2.05;;;;;;;;;;5022472;28;20113;-91
2022/05/01 23:53:11;;;;;;;11.82;2.15;;;;;;;;;;5011229;28;20117;-91
2022/05/01 23:58:33;;;;;;;14.80;2.53;;;;;;;;;;5026831;28;20492;-91
